createdAt,value
2019-04-27T00:00:14.384Z,98502.97
2019-04-27T00:03:02.220Z,98501.61
2019-04-27T00:05:54.084Z,98504.42
2019-04-27T00:08:35.218Z,98495.17
2019-04-27T00:11:25.411Z,98497.23
2019-04-27T00:13:54.435Z,98495.81
2019-04-27T00:16:57.323Z,98489.61
2019-04-27T00:19:44.292Z,98488.36
2019-04-27T00:22:17.913Z,98492.94
2019-04-27T00:24:47.967Z,98494.41
2019-04-27T00:27:16.793Z,98488.04
2019-04-27T00:29:45.510Z,98482.70
2019-04-27T00:32:14.246Z,98480.02
2019-04-27T00:34:43.237Z,98476.51
2019-04-27T00:37:49.196Z,98468.73
2019-04-27T00:40:30.048Z,98476.94
2019-04-27T00:42:58.827Z,98474.98
2019-04-27T00:45:27.594Z,98469.92
2019-04-27T00:47:59.694Z,98469.30
2019-04-27T00:50:26.817Z,98457.80
2019-04-27T00:52:55.894Z,98458.38
2019-04-27T00:55:24.666Z,98458.45
2019-04-27T00:58:12.950Z,98453.66
2019-04-27T01:00:59.538Z,98451.14
2019-04-27T01:04:03.744Z,98451.92
2019-04-27T01:06:33.608Z,98450.88
2019-04-27T01:09:03.548Z,98442.23
2019-04-27T01:11:33.310Z,98437.05
2019-04-27T01:14:03.878Z,98437.95
2019-04-27T01:16:32.765Z,98440.63
2019-04-27T01:19:01.585Z,98436.27
2019-04-27T01:21:30.337Z,98435.64
2019-04-27T01:23:59.081Z,98425.84
2019-04-27T01:26:59.999Z,98429.84
2019-04-27T01:29:29.656Z,98424.98
2019-04-27T01:31:58.951Z,98432.58
2019-04-27T01:34:29.512Z,98435.78
2019-04-27T01:36:59.535Z,98430.05
2019-04-27T01:39:28.969Z,98428.58
2019-04-27T01:41:59.093Z,98434.33
2019-04-27T01:44:29.408Z,98428.23
2019-04-27T01:46:59.889Z,98422.26
2019-04-27T01:49:29.548Z,98422.81
2019-04-27T01:51:59.441Z,98422.81
2019-04-27T01:54:29.266Z,98425.78
2019-04-27T01:57:00.677Z,98431.39
2019-04-27T01:59:29.959Z,98427.66
2019-04-27T02:02:20.053Z,98439.00
2019-04-27T02:05:08.610Z,98438.02
2019-04-27T02:07:38.924Z,98430.66
2019-04-27T02:10:09.764Z,98427.50
2019-04-27T02:12:39.721Z,98430.73
2019-04-27T02:15:10.592Z,98430.73
2019-04-27T02:17:39.624Z,98433.27
2019-04-27T02:20:09.776Z,98435.30
2019-04-27T02:22:38.642Z,98430.60
2019-04-27T02:25:09.068Z,98425.98
2019-04-27T02:27:39.594Z,98417.91
2019-04-27T02:30:31.730Z,98413.64
2019-04-27T02:33:20.274Z,98410.47
2019-04-27T02:35:50.491Z,98409.63
2019-04-27T02:38:20.146Z,98395.70
2019-04-27T02:40:59.834Z,98399.19
2019-04-27T02:43:43.525Z,98403.40
2019-04-27T02:46:12.369Z,98398.41
2019-04-27T02:48:55.971Z,98398.41
2019-04-27T02:51:13.797Z,98400.37
2019-04-27T02:54:00.147Z,98400.37
2019-04-27T02:56:30.611Z,98398.76
2019-04-27T02:58:59.808Z,98402.42
2019-04-27T03:01:31.063Z,98410.22
2019-04-27T03:04:00.532Z,98410.22
2019-04-27T03:06:30.103Z,98413.13
2019-04-27T03:09:00.473Z,98409.70
2019-04-27T03:11:31.036Z,98459.93
2019-04-27T03:14:31.679Z,98423.72
2019-04-27T03:17:02.205Z,98424.61
2019-04-27T03:19:35.365Z,98420.55
2019-04-27T03:22:19.417Z,98420.55
2019-04-27T03:25:06.182Z,98426.22
2019-04-27T03:27:36.481Z,98430.28
2019-04-27T03:30:05.792Z,98430.28
2019-04-27T03:32:34.571Z,98434.39
2019-04-27T03:35:03.866Z,98427.75
2019-04-27T03:37:32.900Z,98430.80
2019-04-27T03:40:02.119Z,98429.37
2019-04-27T03:42:31.935Z,98423.73
2019-04-27T03:45:00.789Z,98427.16
2019-04-27T03:47:30.575Z,98426.18
2019-04-27T03:50:00.193Z,98427.23
2019-04-27T03:52:35.314Z,98424.55
2019-04-27T03:55:16.388Z,98420.39
2019-04-27T03:58:00.067Z,98424.19
2019-04-27T04:00:30.092Z,98424.98
2019-04-27T04:03:00.555Z,98422.28
2019-04-27T04:05:30.167Z,98425.27
2019-04-27T04:08:00.504Z,98423.94
2019-04-27T04:10:31.239Z,98431.58
2019-04-27T04:13:13.810Z,98431.09
2019-04-27T04:15:51.885Z,98428.56
2019-04-27T04:18:20.652Z,98431.80
2019-04-27T04:20:50.522Z,98427.93
2019-04-27T04:23:20.367Z,98428.78
2019-04-27T04:25:50.115Z,98419.63
2019-04-27T04:28:19.957Z,98419.76
2019-04-27T04:30:50.197Z,98422.02
2019-04-27T04:33:20.638Z,98414.94
2019-04-27T04:35:50.036Z,98416.81
2019-04-27T04:38:20.558Z,98410.30
2019-04-27T04:40:56.232Z,98407.61
2019-04-27T04:43:33.960Z,98417.25
2019-04-27T04:46:22.832Z,98414.16
2019-04-27T04:48:52.315Z,98414.16
2019-04-27T04:51:21.263Z,98411.64
2019-04-27T04:53:51.847Z,98409.72
2019-04-27T04:56:21.065Z,98408.30
2019-04-27T04:58:49.867Z,98415.55
2019-04-27T05:01:19.676Z,98411.92
2019-04-27T05:03:48.918Z,98412.23
2019-04-27T05:06:18.995Z,98411.63
2019-04-27T05:08:49.398Z,98415.86
2019-04-27T05:11:19.567Z,98419.79
2019-04-27T05:13:49.437Z,98425.58
2019-04-27T05:16:18.925Z,98426.00
2019-04-27T05:18:49.397Z,98430.37
2019-04-27T05:21:36.419Z,98426.80
2019-04-27T05:24:05.732Z,98426.70
2019-04-27T05:26:35.209Z,98427.00
2019-04-27T05:29:04.525Z,98427.00
2019-04-27T05:31:33.304Z,98419.91
2019-04-27T05:34:02.216Z,98412.02
2019-04-27T05:36:31.068Z,98405.92
2019-04-27T05:38:59.869Z,98408.80
2019-04-27T05:41:32.679Z,98399.38
2019-04-27T05:44:19.014Z,98402.47
2019-04-27T05:47:13.099Z,98411.03
2019-04-27T05:49:44.693Z,98411.03
2019-04-27T05:52:29.903Z,98406.50
2019-04-27T05:54:59.337Z,98400.10
2019-04-27T05:57:31.235Z,98399.34
2019-04-27T06:00:02.135Z,98400.17
2019-04-27T06:02:30.532Z,98401.80
2019-04-27T06:05:00.006Z,98402.65
2019-04-27T06:07:29.632Z,98399.64
2019-04-27T06:09:59.747Z,98399.64
2019-04-27T06:12:29.601Z,98398.50
2019-04-27T06:14:59.839Z,98398.12
2019-04-27T06:17:29.825Z,98393.48
2019-04-27T06:19:59.581Z,98397.91
2019-04-27T06:22:29.396Z,98387.55
2019-04-27T06:25:00.218Z,98384.97
2019-04-27T06:27:30.523Z,98386.45
2019-04-27T06:30:00.414Z,98386.44
2019-04-27T06:32:29.673Z,98385.86
2019-04-27T06:34:58.947Z,98390.19
2019-04-27T06:37:29.435Z,98379.81
2019-04-27T06:39:59.669Z,98379.52
2019-04-27T06:42:29.629Z,98376.03
2019-04-27T06:45:00.434Z,98386.59
2019-04-27T06:47:29.633Z,98365.16
2019-04-27T06:49:58.897Z,98372.13
2019-04-27T06:52:29.151Z,98375.23
2019-04-27T06:54:58.249Z,98365.59
2019-04-27T06:57:27.043Z,98361.41
2019-04-27T06:59:55.822Z,98363.92
2019-04-27T07:02:24.739Z,98363.91
2019-04-27T07:04:53.628Z,98370.89
2019-04-27T07:07:22.400Z,98352.69
2019-04-27T07:09:51.149Z,98353.63
2019-04-27T07:12:19.926Z,98345.56
2019-04-27T07:14:52.856Z,98346.91
2019-04-27T07:17:19.273Z,98343.11
2019-04-27T07:19:49.729Z,98343.17
2019-04-27T07:22:20.045Z,98341.74
2019-04-27T07:24:49.144Z,98341.09
2019-04-27T07:27:19.136Z,98347.64
2019-04-27T07:29:49.510Z,98346.96
2019-04-27T07:32:23.902Z,98342.11
2019-04-27T07:35:00.858Z,98346.67
2019-04-27T07:37:40.119Z,98339.60
2019-04-27T07:40:13.425Z,98342.17
2019-04-27T07:42:46.080Z,98328.65
2019-04-27T07:45:31.646Z,98333.20
2019-04-27T07:48:00.356Z,98322.84
2019-04-27T07:50:29.142Z,98322.03
2019-04-27T07:52:58.676Z,98326.36
2019-04-27T07:55:28.785Z,98330.99
2019-04-27T07:57:59.389Z,98328.32
2019-04-27T08:00:28.968Z,98328.72
2019-04-27T08:02:58.677Z,98327.91
2019-04-27T08:05:34.524Z,98323.83
2019-04-27T08:08:00.918Z,98318.84
2019-04-27T08:10:34.532Z,98318.28
2019-04-27T08:19:46.524Z,98329.80
2019-04-27T08:22:10.510Z,98326.22
2019-04-27T08:25:28.723Z,98323.50
2019-04-27T08:32:19.606Z,98321.53
2019-04-27T08:35:15.544Z,98317.30
2019-04-27T08:38:12.834Z,98304.54
2019-04-27T08:41:01.075Z,98308.02
2019-04-27T08:44:09.742Z,98310.56
2019-04-27T08:47:17.082Z,98311.91
2019-04-27T08:49:58.919Z,98308.07
2019-04-27T08:52:41.881Z,98308.41
2019-04-27T08:55:21.540Z,98314.58
2019-04-27T08:57:50.652Z,98312.20
2019-04-27T09:00:23.466Z,98311.06
2019-04-27T09:02:59.356Z,98313.91
2019-04-27T09:05:49.548Z,98313.94
2019-04-27T09:08:41.241Z,98301.02
2019-04-27T09:11:30.306Z,98302.54
2019-04-27T09:14:13.518Z,98301.55
2019-04-27T09:17:00.033Z,98304.38
2019-04-27T09:19:56.790Z,98299.84
2019-04-27T09:22:25.718Z,98295.36
2019-04-27T09:24:54.716Z,98293.50
2019-04-27T09:27:29.918Z,98289.31
2019-04-27T09:29:59.166Z,98286.08
2019-04-27T09:32:28.985Z,98279.66
2019-04-27T09:34:57.982Z,98279.01
2019-04-27T09:37:27.496Z,98286.05
2019-04-27T09:39:56.558Z,98278.66
2019-04-27T09:42:33.596Z,98277.97
2019-04-27T09:45:02.559Z,98275.95
2019-04-27T09:47:31.450Z,98270.52
2019-04-27T10:04:09.180Z,98247.13
2019-04-27T10:06:38.836Z,98247.81
2019-04-27T10:09:08.702Z,98240.99
2019-04-27T10:15:03.371Z,98242.20
2019-04-27T10:17:44.187Z,98244.94
2019-04-27T10:20:22.195Z,98228.20
2019-04-27T10:22:56.878Z,98223.92
2019-04-27T10:25:27.424Z,98219.22
2019-04-27T10:27:59.353Z,98220.61
2019-04-27T10:30:29.837Z,98210.92
2019-04-27T10:32:58.854Z,98213.38
2019-04-27T10:35:27.779Z,98214.39
2019-04-27T10:37:56.868Z,98215.86
2019-04-27T10:40:54.876Z,98219.03
2019-04-27T10:43:28.610Z,98215.86
2019-04-27T10:46:00.502Z,98214.48
2019-04-27T10:49:24.429Z,98208.78
2019-04-27T10:51:55.641Z,98209.97
2019-04-27T10:54:24.688Z,98205.94
2019-04-27T10:56:55.777Z,98207.97
2019-04-27T10:59:25.229Z,98206.85
2019-04-27T11:01:55.944Z,98218.59
2019-04-27T11:04:47.058Z,98223.33
2019-04-27T11:07:18.370Z,98219.00
2019-04-27T11:09:48.117Z,98209.31
2019-04-27T11:12:17.237Z,98210.33
2019-04-27T11:14:46.644Z,98210.38
2019-04-27T11:17:16.465Z,98206.69
2019-04-27T11:19:46.100Z,98222.64
2019-04-27T11:22:18.306Z,98221.51
2019-04-27T11:24:47.909Z,98217.98
2019-04-27T11:27:17.579Z,98221.03
2019-04-27T11:29:48.604Z,98227.08
2019-04-27T11:32:17.393Z,98219.44
2019-04-27T11:35:10.815Z,98213.09
2019-04-27T11:37:41.370Z,98216.13
2019-04-27T11:40:13.035Z,98225.84
2019-04-27T11:42:44.299Z,98217.13
2019-04-27T11:45:18.598Z,98213.09
2019-04-27T11:47:47.973Z,98205.86
2019-04-27T11:50:17.398Z,98198.93
2019-04-27T11:52:50.662Z,98197.89
2019-04-27T11:55:20.525Z,98201.96
2019-04-27T11:57:52.663Z,98206.17
2019-04-27T12:00:23.510Z,98212.05
2019-04-27T12:03:00.267Z,98204.52
2019-04-27T12:05:29.663Z,98217.42
2019-04-27T12:07:59.276Z,98225.18
2019-04-27T12:10:29.105Z,98242.77
2019-04-27T12:12:58.026Z,98230.53
2019-04-27T12:15:27.003Z,98226.80
2019-04-27T12:17:59.652Z,98228.97
2019-04-27T12:20:29.071Z,98224.89
2019-04-27T12:22:58.489Z,98231.41
2019-04-27T12:25:31.317Z,98219.02
2019-04-27T12:28:28.581Z,98217.02
2019-04-27T12:31:00.787Z,98215.09
2019-04-27T12:33:32.421Z,98213.58
2019-04-27T12:36:02.621Z,98205.05
2019-04-27T12:38:33.167Z,98208.73
2019-04-27T12:41:06.800Z,98204.57
2019-04-27T12:43:39.005Z,98200.72
2019-04-27T12:46:08.864Z,98200.39
2019-04-27T12:48:41.757Z,98194.87
2019-04-27T12:55:05.872Z,98191.36
2019-04-27T12:57:53.695Z,98196.89
2019-04-27T13:01:15.876Z,98189.01
2019-04-27T13:07:47.756Z,98191.69
2019-04-27T13:10:17.788Z,98180.97
2019-04-27T13:12:47.655Z,98176.58
2019-04-27T13:15:17.547Z,98179.44
2019-04-27T13:17:47.572Z,98178.20
2019-04-27T13:20:18.776Z,98164.67
2019-04-27T13:22:53.793Z,98168.19
2019-04-27T13:25:22.592Z,98166.55
2019-04-27T13:27:51.441Z,98168.92
2019-04-27T13:30:21.030Z,98171.76
2019-04-27T13:32:52.941Z,98170.25
2019-04-27T13:35:22.353Z,98174.63
2019-04-27T13:37:53.576Z,98171.28
2019-04-27T13:40:23.401Z,98160.20
2019-04-27T13:43:10.705Z,98162.86
2019-04-27T13:46:08.186Z,98158.56
2019-04-27T13:48:56.265Z,98159.73
2019-04-27T13:51:43.750Z,98159.06
2019-04-27T13:54:23.689Z,98156.72
2019-04-27T13:56:47.695Z,98160.55
2019-04-27T13:59:17.192Z,98155.38
2019-04-27T14:01:46.533Z,98156.20
2019-04-27T14:04:15.900Z,98161.55
2019-04-27T14:06:44.792Z,98157.20
2019-04-27T14:09:14.608Z,98154.86
2019-04-27T14:11:44.018Z,98154.17
2019-04-27T14:14:13.511Z,98154.20
2019-04-27T14:16:43.896Z,98149.34
2019-04-27T14:19:15.671Z,98143.84
2019-04-27T14:21:44.753Z,98140.84
2019-04-27T14:24:27.423Z,98145.68
2019-04-27T14:26:45.552Z,98146.17
2019-04-27T14:29:15.125Z,98140.16
2019-04-27T14:31:44.481Z,98140.00
2019-04-27T14:34:19.019Z,98143.32
2019-04-27T14:36:48.914Z,98140.65
2019-04-27T14:39:18.634Z,98140.83
2019-04-27T14:41:49.463Z,98137.75
2019-04-27T14:44:19.253Z,98142.77
2019-04-27T14:46:48.930Z,98144.95
2019-04-27T14:49:19.916Z,98142.48
2019-04-27T14:51:49.856Z,98140.81
2019-04-27T14:54:22.314Z,98139.59
2019-04-27T14:56:53.507Z,98142.63
2019-04-27T14:59:23.178Z,98133.97
2019-04-27T15:01:52.872Z,98132.45
2019-04-27T15:04:22.287Z,98130.11
2019-04-27T15:06:51.977Z,98124.77
2019-04-27T15:09:21.714Z,98132.47
2019-04-27T15:11:54.407Z,98126.93
2019-04-27T15:14:27.429Z,98133.63
2019-04-27T15:16:59.275Z,98136.30
2019-04-27T15:19:39.936Z,98138.09
2019-04-27T15:22:19.699Z,98142.10
2019-04-27T15:24:48.977Z,98136.42
2019-04-27T15:27:18.023Z,98136.63
2019-04-27T15:29:47.804Z,98132.28
2019-04-27T15:32:25.421Z,98133.95
2019-04-27T15:35:09.579Z,98134.95
2019-04-27T15:37:48.684Z,98133.47
2019-04-27T15:40:38.349Z,98135.58
2019-04-27T15:43:26.941Z,98138.73
2019-04-27T15:45:57.626Z,98182.70
2019-04-27T15:48:30.426Z,98225.83
2019-04-27T15:51:03.260Z,98228.14
2019-04-27T15:53:33.966Z,98245.95
2019-04-27T15:56:06.090Z,98230.69
2019-04-27T15:58:35.305Z,98229.16
2019-04-27T16:01:09.886Z,98229.16
2019-04-27T16:03:38.978Z,98228.46
2019-04-27T16:06:11.854Z,98225.17
2019-04-27T16:20:13.760Z,98217.82
2019-04-27T16:22:43.578Z,98223.83
2019-04-27T16:25:12.576Z,98214.47
2019-04-27T16:27:43.832Z,98221.27
2019-04-27T16:30:17.954Z,98226.05
2019-04-27T16:32:49.152Z,98228.47
2019-04-27T16:35:23.049Z,98228.47
2019-04-27T16:38:09.643Z,98223.09
2019-04-27T16:40:39.839Z,98227.92
2019-04-27T16:43:16.058Z,98227.28
2019-04-27T16:45:45.853Z,98227.28
2019-04-27T16:48:15.543Z,98240.64
2019-04-27T16:50:45.089Z,98244.29
2019-04-27T16:53:14.119Z,98250.66
2019-04-27T16:55:42.954Z,98256.77
2019-04-27T16:58:16.001Z,98264.66
2019-04-27T17:00:42.468Z,98262.24
2019-04-27T17:03:11.363Z,98264.61
2019-04-27T17:05:40.273Z,98264.16
2019-04-27T17:08:14.275Z,98261.70
2019-04-27T17:10:39.623Z,98266.88
2019-04-27T17:13:12.943Z,98265.77
2019-04-27T17:15:59.032Z,98265.77
2019-04-27T17:18:32.304Z,98258.73
2019-04-27T17:21:15.864Z,98250.06
2019-04-27T17:23:31.854Z,98250.06
2019-04-27T17:26:09.257Z,98237.43
2019-04-27T17:28:39.268Z,98237.43
2019-04-27T17:31:12.642Z,98235.80
2019-04-27T17:33:44.530Z,98233.97
2019-04-27T17:36:16.312Z,98262.14
2019-04-27T17:38:47.343Z,98275.36
2019-04-27T17:41:14.134Z,98289.27
2019-04-27T17:43:43.104Z,98283.59
2019-04-27T17:46:13.192Z,98290.73
2019-04-27T17:48:42.418Z,98292.27
2019-04-27T17:51:11.172Z,98284.72
2019-04-27T17:53:43.941Z,98289.50
2019-04-27T17:56:16.082Z,98292.85
2019-04-27T17:58:48.701Z,98290.68
2019-04-27T18:01:19.068Z,98300.14
2019-04-27T18:03:58.485Z,98309.84
2019-04-27T18:06:24.051Z,98310.77
2019-04-27T18:08:55.003Z,98308.27
2019-04-27T18:11:22.458Z,98314.30
2019-04-27T18:13:55.954Z,98319.73
2019-04-27T18:16:23.767Z,98321.70
2019-04-27T18:19:21.891Z,98313.30
2019-04-27T18:22:08.916Z,98316.81
2019-04-27T18:24:48.929Z,98321.50
2019-04-27T18:27:40.242Z,98332.70
2019-04-27T18:30:38.642Z,98335.42
2019-04-27T18:33:09.099Z,98336.70
2019-04-27T18:35:38.701Z,98347.07
2019-04-27T18:38:07.828Z,98348.32
2019-04-27T18:40:38.224Z,98351.05
2019-04-27T18:43:12.185Z,98352.08
2019-04-27T18:45:44.761Z,98347.44
2019-04-27T18:48:15.200Z,98353.99
2019-04-27T18:51:15.284Z,98344.60
2019-04-27T18:53:44.239Z,98360.73
2019-04-27T18:56:15.304Z,98375.09
2019-04-27T18:58:45.419Z,98372.45
2019-04-27T19:01:15.011Z,98376.41
2019-04-27T19:03:49.493Z,98369.20
2019-04-27T19:06:19.517Z,98375.19
2019-04-27T19:08:51.480Z,98375.19
2019-04-27T19:11:21.602Z,98375.61
2019-04-27T19:13:51.192Z,98373.16
2019-04-27T19:16:22.436Z,98377.45
2019-04-27T19:18:54.962Z,98381.62
2019-04-27T19:21:24.566Z,98381.62
2019-04-27T19:23:54.178Z,98380.25
2019-04-27T19:26:56.128Z,98383.19
2019-04-27T19:29:29.223Z,98383.41
2019-04-27T19:31:59.957Z,98380.81
2019-04-27T19:34:28.851Z,98383.47
2019-04-27T19:36:59.253Z,98389.55
2019-04-27T19:39:28.776Z,98389.55
2019-04-27T19:42:01.430Z,98380.63
2019-04-27T19:44:29.170Z,98380.63
2019-04-27T19:47:00.240Z,98372.90
2019-04-27T19:49:29.394Z,98372.90
2019-04-27T19:51:59.150Z,98367.73
2019-04-27T19:54:30.071Z,98379.22
2019-04-27T19:56:59.564Z,98375.56
2019-04-27T19:59:38.097Z,98382.22
2019-04-27T20:02:11.757Z,98381.93
2019-04-27T20:04:42.336Z,98384.61
2019-04-27T20:07:13.397Z,98384.61
2019-04-27T20:09:49.947Z,98386.76
2019-04-27T20:12:18.987Z,98396.22
2019-04-27T20:14:57.280Z,98410.77
2019-04-27T20:17:27.324Z,98409.27
2019-04-27T20:19:56.650Z,98410.49
2019-04-27T20:22:25.609Z,98390.55
2019-04-27T20:24:54.676Z,98410.32
2019-04-27T20:27:23.391Z,98410.32
2019-04-27T20:29:52.982Z,98414.13
2019-04-27T20:32:21.726Z,98422.23
2019-04-27T20:34:51.354Z,98429.38
2019-04-27T20:37:21.004Z,98429.38
2019-04-27T20:39:51.496Z,98426.80
2019-04-27T20:42:21.255Z,98429.52
2019-04-27T20:44:51.585Z,98421.31
2019-04-27T20:47:20.517Z,98421.31
2019-04-27T20:49:49.374Z,98426.14
2019-04-27T20:52:34.253Z,98432.30
2019-04-27T20:55:03.036Z,98432.30
2019-04-27T20:57:32.162Z,98441.70
2019-04-27T21:00:01.913Z,98430.62
2019-04-27T21:02:41.830Z,98421.96
2019-04-27T21:05:25.917Z,98426.64
2019-04-27T21:07:58.398Z,98428.05
2019-04-27T21:10:27.183Z,98435.88
2019-04-27T21:12:55.894Z,98436.16
2019-04-27T21:15:24.660Z,98434.63
2019-04-27T21:17:53.387Z,98433.14
2019-04-27T21:20:22.260Z,98437.78
2019-04-27T21:22:51.495Z,98434.88
2019-04-27T21:25:21.496Z,98434.53
2019-04-27T21:27:51.302Z,98443.65
2019-04-27T21:30:21.318Z,98433.63
2019-04-27T21:32:50.850Z,98433.58
2019-04-27T21:35:21.099Z,98438.89
2019-04-27T21:37:51.191Z,98436.30
2019-04-27T21:40:21.622Z,98437.89
2019-04-27T21:42:51.263Z,98440.09
2019-04-27T21:45:21.836Z,98435.88
2019-04-27T21:47:51.897Z,98439.73
2019-04-27T21:50:23.264Z,98438.27
2019-04-27T21:53:13.687Z,98438.27
2019-04-27T21:55:42.431Z,98446.73
2019-04-27T21:58:11.600Z,98456.23
2019-04-27T22:00:58.388Z,98462.80
2019-04-27T22:03:31.601Z,98461.41
2019-04-27T22:06:01.808Z,98452.16
2019-04-27T22:08:31.854Z,98452.16
2019-04-27T22:11:01.563Z,98474.30
2019-04-27T22:13:31.198Z,98455.80
2019-04-27T22:16:00.162Z,98462.67
2019-04-27T22:18:28.926Z,98459.86
2019-04-27T22:20:57.826Z,98465.53
2019-04-27T22:23:36.175Z,98474.75
2019-04-27T22:26:04.999Z,98482.19
2019-04-27T22:28:46.165Z,98479.05
2019-04-27T22:31:04.284Z,98478.73
2019-04-27T22:33:33.517Z,98478.03
2019-04-27T22:36:02.335Z,98475.66
2019-04-27T22:38:32.724Z,98472.95
2019-04-27T22:41:13.030Z,98472.95
2019-04-27T22:44:11.527Z,98470.64
2019-04-27T22:46:41.855Z,98477.78
2019-04-27T22:49:11.035Z,98471.89
2019-04-27T22:51:41.170Z,98476.67
2019-04-27T22:54:11.577Z,98485.50
2019-04-27T22:56:42.249Z,98483.41
2019-04-27T22:59:27.367Z,98484.69
2019-04-27T23:02:06.557Z,98487.00
2019-04-27T23:04:38.354Z,98488.02
2019-04-27T23:07:07.187Z,98482.71
2019-04-27T23:09:35.967Z,98491.07
2019-04-27T23:12:04.863Z,98493.06
2019-04-27T23:14:33.751Z,98494.84
2019-04-27T23:17:13.319Z,98497.89
2019-04-27T23:19:42.816Z,98502.89
2019-04-27T23:22:11.579Z,98507.64
2019-04-27T23:24:41.466Z,98504.81
2019-04-27T23:27:11.082Z,98513.53
2019-04-27T23:29:41.835Z,98511.36
2019-04-27T23:32:17.694Z,98509.06
2019-04-27T23:34:46.426Z,98505.16
2019-04-27T23:37:15.186Z,98506.44
2019-04-27T23:39:43.913Z,98506.31
2019-04-27T23:42:12.656Z,98501.53
2019-04-27T23:44:41.384Z,98508.78
2019-04-27T23:47:10.129Z,98507.02
2019-04-27T23:49:40.756Z,98513.84
2019-04-27T23:52:23.315Z,98509.37
2019-04-27T23:54:52.037Z,98516.14
2019-04-27T23:57:21.777Z,98513.00
2019-04-27T23:59:51.537Z,98516.63
